Al Hariq, Saudi Arabia
Current Conditions -  °F | °C
As of 12:00 AM on Saturday 01 Nov 2014 (Local Time) from OEKJ Reporting Station
Clear Clear  
Wind Chill: 79°   Ceiling: Unl
Heat Index: 79°   Visibility: 6mi
Dew Point: 39°   Wind: 15mph
Humidity: 24%   Direction: 170°S
Pressure: 29.85"   Gusts: NA
Location:  23.62°N, 46.52°E
Report Text: OEKJ 312100Z 17013KT CAVOK 26/04 Q1011
Loading
Personal Weather Stations






























Interactive Weather Map
Tropical Storm Tracking
New forecast layout! Learn more

10-Day Weather Forecast

Advertisements
Track Severe Weather on mobile